createdAt,value
2022-11-24T00:02:19.910Z,7.32
2022-11-24T00:05:21.337Z,9.52
2022-11-24T00:08:22.701Z,7.15
2022-11-24T00:11:27.106Z,7.55
2022-11-24T00:14:28.453Z,10.27
2022-11-24T00:17:29.782Z,9.40
2022-11-24T00:20:31.121Z,6.88
2022-11-24T00:23:32.982Z,6.63
2022-11-24T00:26:35.903Z,12.07
2022-11-24T00:29:37.583Z,10.02
2022-11-24T00:32:38.927Z,7.80
2022-11-24T00:35:40.254Z,7.07
2022-11-24T00:38:41.670Z,8.90
2022-11-24T00:41:43.225Z,6.03
2022-11-24T00:44:44.574Z,9.55
2022-11-24T00:47:45.928Z,10.40
2022-11-24T00:51:05.070Z,10.63
2022-11-24T00:54:06.474Z,5.97
2022-11-24T00:57:07.841Z,7.90
2022-11-24T01:00:09.607Z,10.32
2022-11-24T01:03:12.635Z,7.00
2022-11-24T01:06:17.075Z,8.27
2022-11-24T01:09:18.425Z,8.07
2022-11-24T01:12:19.868Z,7.50
2022-11-24T01:15:21.253Z,9.23
2022-11-24T01:18:22.596Z,6.95
2022-11-24T01:21:24.508Z,7.05
2022-11-24T01:24:25.852Z,8.88
2022-11-24T01:27:27.249Z,14.98
2022-11-24T01:30:28.648Z,11.57
2022-11-24T01:33:30.209Z,9.07
2022-11-24T01:36:31.630Z,7.90
2022-11-24T01:39:32.969Z,10.43
2022-11-24T01:42:46.743Z,12.98
2022-11-24T01:45:48.260Z,10.10
2022-11-24T01:49:08.301Z,11.45
2022-11-24T01:52:18.422Z,10.02
2022-11-24T01:55:46.158Z,8.00
2022-11-24T01:58:48.559Z,8.35
2022-11-24T02:01:51.637Z,8.70
2022-11-24T02:04:53.948Z,10.20
2022-11-24T02:07:59.604Z,8.70
2022-11-24T02:11:04.084Z,11.43
2022-11-24T02:14:07.457Z,5.80
2022-11-24T02:20:13.043Z,6.65
2022-11-24T02:26:33.858Z,8.45
2022-11-24T02:29:35.232Z,9.07
2022-11-24T02:32:40.026Z,6.72
2022-11-24T02:35:42.342Z,12.25
2022-11-24T02:38:43.694Z,10.63
2022-11-24T02:41:58.887Z,7.00
2022-11-24T02:45:01.155Z,11.35
2022-11-24T02:48:02.512Z,13.27
2022-11-24T02:51:04.032Z,7.57
2022-11-24T02:54:05.405Z,9.32
2022-11-24T02:57:06.752Z,14.00
2022-11-24T03:00:08.965Z,13.48
2022-11-24T03:03:10.397Z,9.25
2022-11-24T03:06:11.912Z,12.00
2022-11-24T03:09:13.352Z,12.07
2022-11-24T03:12:14.781Z,9.45
2022-11-24T03:15:16.189Z,9.43
2022-11-24T03:18:17.546Z,9.55
2022-11-24T03:21:19.305Z,9.43
2022-11-24T03:24:20.761Z,8.63
2022-11-24T03:27:22.087Z,9.00
2022-11-24T03:30:23.490Z,12.10
2022-11-24T03:33:24.838Z,10.75
2022-11-24T03:36:26.210Z,7.78
2022-11-24T03:39:27.558Z,9.93
2022-11-24T03:42:28.883Z,10.20
2022-11-24T03:45:45.547Z,11.10
2022-11-24T03:48:47.797Z,9.73
2022-11-24T03:51:49.728Z,8.90
2022-11-24T03:54:51.099Z,9.88
2022-11-24T03:57:52.469Z,10.93
2022-11-24T04:00:54.607Z,10.48
2022-11-24T04:03:55.948Z,8.18
2022-11-24T04:06:57.304Z,14.90
2022-11-24T04:09:58.641Z,16.75
2022-11-24T04:12:59.984Z,12.05
2022-11-24T04:16:05.651Z,12.23
2022-11-24T04:19:07.568Z,11.20
2022-11-24T04:22:08.941Z,12.93
2022-11-24T04:25:10.649Z,13.00
2022-11-24T04:28:11.990Z,10.18
2022-11-24T04:31:13.461Z,15.75
2022-11-24T04:34:14.974Z,11.95
2022-11-24T04:37:16.342Z,14.63
2022-11-24T04:40:17.763Z,11.68
2022-11-24T04:43:19.165Z,13.13
2022-11-24T04:46:20.566Z,10.95
2022-11-24T04:49:21.946Z,14.02
2022-11-24T04:52:24.700Z,15.45
2022-11-24T04:55:26.110Z,16.27
2022-11-24T04:58:27.558Z,15.27
2022-11-24T05:01:28.982Z,14.73
2022-11-24T05:04:30.413Z,11.60
2022-11-24T05:07:32.374Z,15.48
2022-11-24T05:10:34.259Z,18.45
2022-11-24T05:13:35.591Z,12.10
2022-11-24T05:16:36.969Z,13.52
2022-11-24T05:19:38.372Z,13.32
2022-11-24T05:22:39.773Z,17.13
2022-11-24T05:25:47.252Z,11.90
2022-11-24T05:28:49.050Z,14.57
2022-11-24T05:31:50.441Z,14.50
2022-11-24T05:34:51.780Z,17.95
2022-11-24T05:37:53.221Z,16.77
2022-11-24T05:40:54.584Z,19.08
2022-11-24T05:43:55.921Z,13.82
2022-11-24T05:46:57.328Z,15.85
2022-11-24T05:49:58.692Z,19.35
2022-11-24T05:53:05.121Z,15.68
2022-11-24T05:56:06.896Z,13.73
2022-11-24T05:59:09.964Z,17.15
2022-11-24T06:05:13.197Z,21.23
2022-11-24T06:08:15.013Z,18.08
2022-11-24T06:11:16.361Z,19.25
2022-11-24T06:14:17.724Z,24.08
2022-11-24T06:17:19.078Z,17.70
2022-11-24T06:20:20.489Z,16.80
2022-11-24T06:23:21.860Z,26.33
2022-11-24T06:26:23.289Z,18.33
2022-11-24T06:29:24.651Z,14.63
2022-11-24T06:32:26.029Z,21.35
2022-11-24T06:35:27.498Z,24.05
2022-11-24T06:38:29.259Z,17.83
2022-11-24T06:41:30.655Z,17.58
2022-11-24T06:44:32.320Z,15.52
2022-11-24T06:47:34.039Z,18.25
2022-11-24T06:50:35.480Z,20.25
2022-11-24T06:53:38.438Z,19.25
2022-11-24T06:56:39.868Z,20.55
2022-11-24T06:59:41.199Z,20.48
2022-11-24T07:02:45.917Z,19.58
2022-11-24T07:05:47.708Z,19.40
2022-11-24T07:08:49.643Z,18.77
2022-11-24T07:11:51.005Z,20.55
2022-11-24T07:14:52.364Z,22.02
2022-11-24T07:17:53.680Z,21.05
2022-11-24T07:20:55.436Z,23.95
2022-11-24T07:23:57.719Z,22.20
2022-11-24T07:26:59.060Z,23.50
2022-11-24T07:30:00.410Z,24.45
2022-11-24T07:33:03.038Z,19.80
2022-11-24T07:36:06.564Z,26.13
2022-11-24T07:39:07.892Z,27.90
2022-11-24T07:42:09.226Z,23.27
2022-11-24T07:45:10.837Z,20.98
2022-11-24T07:48:12.193Z,21.13
2022-11-24T07:51:13.539Z,23.73
2022-11-24T07:54:14.870Z,23.73
2022-11-24T07:57:16.204Z,24.40
2022-11-24T08:00:17.939Z,26.75
2022-11-24T08:03:19.307Z,21.75
2022-11-24T08:06:27.731Z,24.20
2022-11-24T08:09:33.915Z,23.17
2022-11-24T08:12:35.280Z,19.48
2022-11-24T08:15:36.639Z,26.63
2022-11-24T08:18:39.003Z,24.00
2022-11-24T08:21:40.384Z,26.52
2022-11-24T08:24:41.730Z,25.40
2022-11-24T08:27:43.076Z,30.05
2022-11-24T08:30:44.459Z,20.50
2022-11-24T08:33:46.548Z,22.85
2022-11-24T08:36:47.896Z,21.00
2022-11-24T08:39:49.279Z,21.77
2022-11-24T08:42:50.629Z,20.85
2022-11-24T08:45:52.084Z,19.65
2022-11-24T08:48:54.610Z,20.77
2022-11-24T08:51:57.812Z,18.33
2022-11-24T08:54:59.145Z,21.92
2022-11-24T08:58:00.506Z,25.75
2022-11-24T09:01:12.701Z,21.65
2022-11-24T09:04:14.148Z,21.25
2022-11-24T09:07:15.592Z,21.80
2022-11-24T09:10:17.379Z,22.50
2022-11-24T09:13:18.750Z,22.30
2022-11-24T09:16:23.169Z,22.67
2022-11-24T09:19:24.628Z,25.35
2022-11-24T09:22:25.933Z,17.25
2022-11-24T09:25:27.264Z,17.80
2022-11-24T09:28:28.593Z,18.10
2022-11-24T09:31:32.590Z,18.20
2022-11-24T09:34:34.042Z,19.30
2022-11-24T09:37:35.389Z,15.77
2022-11-24T09:40:36.757Z,21.75
2022-11-24T09:43:46.785Z,14.50
2022-11-24T09:47:13.261Z,13.38
2022-11-24T09:50:25.114Z,18.25
2022-11-24T09:54:04.986Z,16.35
2022-11-24T09:57:07.197Z,16.13
2022-11-24T10:00:15.126Z,13.30
2022-11-24T10:03:31.695Z,17.73
2022-11-24T10:06:44.211Z,16.63
2022-11-24T10:09:57.343Z,13.77
2022-11-24T10:13:20.879Z,11.15
2022-11-24T10:16:51.505Z,13.10
2022-11-24T10:20:09.264Z,13.98
2022-11-24T10:23:29.188Z,18.20
2022-11-24T10:26:47.275Z,12.68
2022-11-24T10:29:51.964Z,19.98
2022-11-24T10:33:01.336Z,20.63
2022-11-24T10:36:19.015Z,11.70
2022-11-24T10:39:52.882Z,14.13
2022-11-24T10:42:57.245Z,13.85
2022-11-24T10:46:10.877Z,17.52
2022-11-24T10:49:21.729Z,14.43
2022-11-24T10:52:24.920Z,15.23
2022-11-24T10:55:26.317Z,24.73
2022-11-24T10:58:38.431Z,12.90
2022-11-24T11:01:40.088Z,15.40
2022-11-24T11:04:41.433Z,19.90
2022-11-24T11:07:42.848Z,18.25
2022-11-24T11:10:47.059Z,12.23
2022-11-24T11:13:49.573Z,14.20
2022-11-24T11:16:53.753Z,13.47
2022-11-24T11:20:02.921Z,14.43
2022-11-24T11:23:16.220Z,21.08
2022-11-24T11:26:26.517Z,16.52
2022-11-24T11:36:22.411Z,14.98
2022-11-24T11:39:28.992Z,16.48
2022-11-24T11:43:03.868Z,15.70
2022-11-24T11:46:11.349Z,15.50
2022-11-24T11:49:13.746Z,18.25
2022-11-24T11:52:37.003Z,14.90
2022-11-24T11:55:53.486Z,15.82
2022-11-24T11:59:27.331Z,15.55
2022-11-24T12:02:28.750Z,20.35
2022-11-24T12:05:43.336Z,16.40
2022-11-24T12:09:21.639Z,17.15
2022-11-24T12:12:55.411Z,14.68
2022-11-24T12:16:05.887Z,12.68
2022-11-24T12:19:34.186Z,15.75
2022-11-24T12:22:53.712Z,16.70
2022-11-24T12:26:09.062Z,12.30
2022-11-24T12:29:43.609Z,14.95
2022-11-24T12:32:47.667Z,12.43
2022-11-24T12:35:53.555Z,20.55
2022-11-24T12:39:05.317Z,15.75
2022-11-24T12:42:19.926Z,16.45
2022-11-24T12:45:39.241Z,12.20
2022-11-24T12:49:01.309Z,14.95
2022-11-24T12:52:23.901Z,13.38
2022-11-24T12:55:27.618Z,17.95
2022-11-24T12:58:39.649Z,18.13
2022-11-24T13:01:53.464Z,16.23
2022-11-24T13:05:12.841Z,15.38
2022-11-24T13:08:14.922Z,11.65
2022-11-24T13:11:22.119Z,10.18
2022-11-24T13:14:30.148Z,15.93
2022-11-24T13:17:43.527Z,13.85
2022-11-24T13:20:54.649Z,21.07
2022-11-24T13:24:21.414Z,14.25
2022-11-24T13:27:28.171Z,21.65
2022-11-24T13:30:35.405Z,13.02
2022-11-24T13:33:37.518Z,13.52
2022-11-24T13:36:52.452Z,14.52
2022-11-24T13:39:57.546Z,18.52
2022-11-24T13:42:58.856Z,17.52
2022-11-24T13:46:00.195Z,14.60
2022-11-24T13:49:01.503Z,10.30
2022-11-24T13:52:40.201Z,14.20
2022-11-24T13:56:19.951Z,18.35
2022-11-24T13:59:33.688Z,13.85
2022-11-24T14:02:35.172Z,12.95
2022-11-24T14:05:39.271Z,15.98
2022-11-24T14:08:40.724Z,12.07
2022-11-24T14:11:42.315Z,10.93
2022-11-24T14:14:46.019Z,14.82
2022-11-24T14:17:47.361Z,19.63
2022-11-24T14:20:48.802Z,14.50
2022-11-24T14:24:08.963Z,16.25
2022-11-24T14:27:17.469Z,15.90
2022-11-24T14:30:22.293Z,17.40
2022-11-24T14:33:23.660Z,17.25
2022-11-24T14:36:25.010Z,20.45
2022-11-24T14:39:27.554Z,16.13
2022-11-24T14:42:28.988Z,17.77
2022-11-24T14:45:37.493Z,16.20
2022-11-24T14:48:47.713Z,15.02
2022-11-24T14:51:58.187Z,16.60
2022-11-24T14:55:17.325Z,13.60
2022-11-24T14:58:31.689Z,13.18
2022-11-24T15:01:34.475Z,13.93
2022-11-24T15:05:02.577Z,14.20
2022-11-24T15:08:04.968Z,16.40
2022-11-24T15:11:07.423Z,14.35
2022-11-24T15:14:31.563Z,12.47
2022-11-24T15:17:33.497Z,18.75
2022-11-24T15:20:46.055Z,15.75
2022-11-24T15:24:14.821Z,16.75
2022-11-24T15:27:16.255Z,19.42
2022-11-24T15:30:17.710Z,15.73
2022-11-24T15:33:19.926Z,16.15
2022-11-24T15:36:21.317Z,20.08
2022-11-24T15:39:22.675Z,16.90
2022-11-24T15:42:24.016Z,22.50
2022-11-24T15:45:26.176Z,20.85
2022-11-24T15:48:28.615Z,16.25
2022-11-24T15:51:30.472Z,19.30
2022-11-24T15:54:32.098Z,17.58
2022-11-24T15:57:34.088Z,19.13
2022-11-24T16:00:35.448Z,16.05
2022-11-24T16:03:52.194Z,15.75
2022-11-24T16:06:53.532Z,16.90
2022-11-24T16:09:54.869Z,21.50
2022-11-24T16:12:56.182Z,16.02
2022-11-24T16:15:57.600Z,25.90
2022-11-24T16:18:58.965Z,16.88
2022-11-24T16:22:00.314Z,17.65
2022-11-24T16:25:01.650Z,17.40
2022-11-24T16:28:03.054Z,18.73
2022-11-24T16:31:04.493Z,16.13
2022-11-24T16:34:05.905Z,18.75
2022-11-24T16:37:07.283Z,19.83
2022-11-24T16:40:09.134Z,17.45
2022-11-24T16:43:10.651Z,18.55
2022-11-24T16:46:20.891Z,16.85
2022-11-24T16:49:22.307Z,15.90
2022-11-24T16:52:23.666Z,17.23
2022-11-24T16:55:25.015Z,17.58
2022-11-24T16:58:26.428Z,15.85
2022-11-24T17:01:27.859Z,17.88
2022-11-24T17:04:29.227Z,27.42
2022-11-24T17:07:30.670Z,26.63
2022-11-24T17:10:32.050Z,16.70
2022-11-24T17:13:33.891Z,17.75
2022-11-24T17:16:37.352Z,22.95
2022-11-24T17:19:38.732Z,21.02
2022-11-24T17:22:40.069Z,21.10
2022-11-24T17:25:41.479Z,21.02
2022-11-24T17:28:43.788Z,25.58
2022-11-24T17:31:45.489Z,20.70
2022-11-24T17:34:46.858Z,17.65
2022-11-24T17:37:48.201Z,17.95
2022-11-24T17:40:49.561Z,18.52
2022-11-24T17:43:52.709Z,19.98
2022-11-24T17:46:54.096Z,17.38
2022-11-24T17:49:55.482Z,25.33
2022-11-24T17:52:56.805Z,17.17
2022-11-24T17:55:59.605Z,18.25
2022-11-24T17:59:00.993Z,14.90
2022-11-24T18:02:02.392Z,17.55
2022-11-24T18:05:04.069Z,12.65
2022-11-24T18:08:05.648Z,16.67
2022-11-24T18:11:13.330Z,14.88
2022-11-24T18:14:14.688Z,14.60
2022-11-24T18:17:16.050Z,15.93
2022-11-24T18:20:17.464Z,10.82
2022-11-24T18:23:18.798Z,14.10
2022-11-24T18:26:20.167Z,11.60
2022-11-24T18:29:21.479Z,14.63
2022-11-24T18:32:22.815Z,11.90
2022-11-24T18:35:24.167Z,13.10
2022-11-24T18:38:28.880Z,12.95
2022-11-24T18:41:30.503Z,12.00
2022-11-24T18:44:32.107Z,13.63
2022-11-24T18:47:33.812Z,14.27
2022-11-24T18:50:35.196Z,12.40
2022-11-24T18:53:36.549Z,14.00
2022-11-24T18:56:37.932Z,12.25
2022-11-24T18:59:39.291Z,13.50
2022-11-24T19:02:40.680Z,16.55
2022-11-24T19:05:42.077Z,20.80
2022-11-24T19:08:43.717Z,18.48
2022-11-24T19:11:46.771Z,18.35
2022-11-24T19:14:48.093Z,13.88
2022-11-24T19:17:49.480Z,15.75
2022-11-24T19:20:50.859Z,12.20
2022-11-24T19:23:52.713Z,13.45
2022-11-24T19:26:54.418Z,14.60
2022-11-24T19:29:55.745Z,12.77
2022-11-24T19:32:57.073Z,15.05
2022-11-24T19:36:06.306Z,17.38
2022-11-24T19:39:07.625Z,17.95
2022-11-24T19:42:08.963Z,20.67
2022-11-24T19:45:10.543Z,13.77
2022-11-24T19:48:11.909Z,18.05
2022-11-24T19:51:16.405Z,17.80
2022-11-24T19:54:17.814Z,18.75
2022-11-24T19:57:19.193Z,16.40
2022-11-24T20:00:20.764Z,13.10
2022-11-24T20:03:22.162Z,20.73
2022-11-24T20:06:23.524Z,18.90
2022-11-24T20:09:24.858Z,16.35
2022-11-24T20:12:26.180Z,16.40
2022-11-24T20:15:27.523Z,18.75
2022-11-24T20:18:30.013Z,14.68
2022-11-24T20:21:32.248Z,18.07
2022-11-24T20:24:33.747Z,15.18
2022-11-24T20:27:35.268Z,18.00
2022-11-24T20:30:36.624Z,18.70
2022-11-24T20:33:38.986Z,18.42
2022-11-24T20:36:42.500Z,21.27
2022-11-24T20:39:43.840Z,22.40
2022-11-24T20:42:45.236Z,22.52
2022-11-24T20:45:46.667Z,21.13
2022-11-24T20:48:48.916Z,20.50
2022-11-24T20:51:50.285Z,21.77
2022-11-24T20:54:51.617Z,23.27
2022-11-24T20:57:53.084Z,23.10
2022-11-24T21:00:54.536Z,23.27
2022-11-24T21:03:58.606Z,24.95
2022-11-24T21:06:59.972Z,23.83
2022-11-24T21:10:01.695Z,24.13
2022-11-24T21:13:03.128Z,24.58
2022-11-24T21:16:14.068Z,22.10
2022-11-24T21:19:15.897Z,21.40
2022-11-24T21:22:17.227Z,21.00
2022-11-24T21:25:18.582Z,25.13
2022-11-24T21:28:19.901Z,28.10
2022-11-24T21:31:21.566Z,27.20
2022-11-24T21:34:23.003Z,24.20
2022-11-24T21:37:24.362Z,26.17
2022-11-24T21:40:25.796Z,26.55
2022-11-24T21:43:28.491Z,31.92
2022-11-24T21:46:30.283Z,22.23
2022-11-24T21:49:31.661Z,21.70
2022-11-24T21:52:33.072Z,24.20
2022-11-24T21:55:34.439Z,22.83
2022-11-24T21:58:35.803Z,22.17
2022-11-24T22:01:37.190Z,22.23
2022-11-24T22:04:38.543Z,25.08
2022-11-24T22:07:39.939Z,26.10
2022-11-24T22:10:41.374Z,31.95
2022-11-24T22:13:43.727Z,29.95
2022-11-24T22:16:45.199Z,24.35
2022-11-24T22:19:46.599Z,22.13
2022-11-24T22:22:47.972Z,22.88
2022-11-24T22:25:49.304Z,25.70
2022-11-24T22:28:51.618Z,27.35
2022-11-24T22:31:53.045Z,30.88
2022-11-24T22:34:54.517Z,27.17
2022-11-24T22:37:55.893Z,29.80
2022-11-24T22:41:05.309Z,30.23
2022-11-24T22:44:06.677Z,31.85
2022-11-24T22:47:08.070Z,26.73
2022-11-24T22:50:09.853Z,29.40
2022-11-24T22:53:11.353Z,28.70
2022-11-24T22:56:12.742Z,29.98
2022-11-24T22:59:14.099Z,31.48
2022-11-24T23:02:15.486Z,27.80
2022-11-24T23:05:20.558Z,34.15
2022-11-24T23:08:22.230Z,30.23
2022-11-24T23:11:33.817Z,29.52
2022-11-24T23:14:37.876Z,31.45
2022-11-24T23:17:39.270Z,33.55
2022-11-24T23:20:40.658Z,35.60
2022-11-24T23:23:42.610Z,31.00
2022-11-24T23:26:43.946Z,37.25
2022-11-24T23:29:45.284Z,35.40
2022-11-24T23:32:46.634Z,29.95
2022-11-24T23:35:48.053Z,35.00
2022-11-24T23:38:49.570Z,41.70
2022-11-24T23:41:50.926Z,31.17
2022-11-24T23:44:52.267Z,33.63
2022-11-24T23:47:53.878Z,34.50
2022-11-24T23:50:55.280Z,33.97
2022-11-24T23:53:57.087Z,40.40
2022-11-24T23:56:58.399Z,35.20
2022-11-24T23:59:59.747Z,38.08
